Time;durP1;ratioP1;P1;durP2;ratioP2;P2;SDS_P1;SDS_P2;PMS_P1;PMS_P2;Temp;Humidity;BMP_temperature;BMP_pressure;BME280_temperature;BME280_humidity;BME280_pressure;Samples;Min_cycle;Max_cycle;Signal;HPM_P1;HPM_P2
2022/11/27 00:01:29;;;;;;;;;;;;;;;7.40;100.00;100081.34;5039749;28;19952;-57
2022/11/27 00:03:54;;;;;;;;;;;;;;;7.43;100.00;100065.97;5038172;28;19921;-60
2022/11/27 00:06:20;;;;;;;;;;;;;;;7.19;100.00;100061.75;5039574;28;21008;-59
2022/11/27 00:08:45;;;;;;;;;;;;;;;7.63;100.00;100065.06;5039034;28;20996;-60
2022/11/27 00:11:13;;;;;;;;;;;;;;;7.49;100.00;100062.56;5040825;28;20011;-59
2022/11/27 00:13:39;;;;;;;;;;;;;;;7.35;100.00;100062.59;5038489;28;19974;-59
2022/11/27 00:16:04;;;;;;;;;;;;;;;7.36;100.00;100059.16;5040029;28;20215;-60
2022/11/27 00:18:30;;;;;;;;;;;;;;;7.78;100.00;100059.91;5039417;28;20000;-59
2022/11/27 00:20:55;;;;;;;;;;;;;;;7.66;100.00;100047.13;5040024;28;19924;-59
2022/11/27 00:23:20;;;;;;;;;;;;;;;7.78;100.00;100041.97;5038111;28;19917;-59
2022/11/27 00:25:51;;;;;;;;;;;;;;;7.66;100.00;100041.97;5039669;28;19943;-59
2022/11/27 00:28:17;;;;;;;;;;;;;;;7.47;100.00;100036.06;5039181;28;20007;-59
2022/11/27 00:30:42;;;;;;;;;;;;;;;7.45;100.00;100033.50;5039523;28;20016;-59
2022/11/27 00:33:07;;;;;;;;;;;;;;;7.45;100.00;100036.06;5040150;28;19921;-59
2022/11/27 00:35:32;;;;;;;;;;;;;;;7.75;100.00;100019.75;5040849;28;21216;-60
2022/11/27 00:37:58;;;;;;;;;;;;;;;7.90;100.00;100020.53;5039715;28;20400;-60
2022/11/27 00:40:23;;;;;;;;;;;;;;;7.73;100.00;100013.78;5039660;28;20358;-60
2022/11/27 00:42:48;;;;;;;;;;;;;;;7.58;100.00;100016.38;5039093;28;20285;-59
2022/11/27 00:45:13;;;;;;;;;;;;;;;8.02;100.00;100017.06;5039780;28;19975;-60
2022/11/27 00:47:39;;;;;;;;;;;;;;;7.86;100.00;99999.16;5039049;28;19921;-61
2022/11/27 00:50:04;;;;;;;;;;;;;;;7.71;100.00;100004.38;5038919;28;19935;-59
2022/11/27 00:52:30;;;;;;;;;;;;;;;7.49;100.00;99989.06;5041168;28;19923;-59
2022/11/27 00:54:55;;;;;;;;;;;;;;;8.27;100.00;99989.53;5041542;28;20336;-59
2022/11/27 00:57:20;;;;;;;;;;;;;;;8.31;100.00;99993.78;5042692;28;20445;-59
2022/11/27 00:59:45;;;;;;;;;;;;;;;8.00;100.00;99982.84;5043496;28;20407;-59
2022/11/27 01:02:10;;;;;;;;;;;;;;;7.75;100.00;99978.72;5042310;28;20023;-59
2022/11/27 01:04:36;;;;;;;;;;;;;;;7.95;100.00;99988.84;5040864;28;19978;-59
2022/11/27 01:07:01;;;;;;;;;;;;;;;7.48;100.00;99982.25;5042206;28;19917;-59
2022/11/27 01:09:26;;;;;;;;;;;;;;;8.27;100.00;99985.25;5042594;28;20020;-59
2022/11/27 01:11:51;;;;;;;;;;;;;;;8.24;100.00;99980.16;5043454;28;19931;-59
2022/11/27 01:14:17;;;;;;;;;;;;;;;8.33;100.00;99980.06;5041972;28;19928;-59
2022/11/27 01:16:42;;;;;;;;;;;;;;;8.19;100.00;99969.06;5042861;28;19935;-59
2022/11/27 01:19:08;;;;;;;;;;;;;;;8.73;100.00;99974.63;5042230;28;20014;-59
2022/11/27 01:21:34;;;;;;;;;;;;;;;7.78;100.00;99966.72;5042670;28;19975;-59
2022/11/27 01:23:59;;;;;;;;;;;;;;;8.08;100.00;99973.41;5043456;28;19963;-59
2022/11/27 01:26:25;;;;;;;;;;;;;;;8.91;100.00;99972.78;5042520;28;19924;-59
2022/11/27 01:28:51;;;;;;;;;;;;;;;8.71;100.00;99965.25;5042312;28;20003;-59
2022/11/27 01:31:17;;;;;;;;;;;;;;;8.27;100.00;99969.84;5043885;28;19947;-59
2022/11/27 01:33:43;;;;;;;;;;;;;;;8.91;100.00;99958.22;5041587;28;19978;-59
2022/11/27 01:36:09;;;;;;;;;;;;;;;8.91;100.00;99937.66;5043126;28;19917;-59
2022/11/27 01:38:34;;;;;;;;;;;;;;;8.44;100.00;99935.53;5041414;28;19928;-59
2022/11/27 01:41:00;;;;;;;;;;;;;;;8.24;100.00;99954.47;5043454;28;19959;-59
2022/11/27 01:43:44;;;;;;;;;;;;;;;8.40;100.00;99947.56;5041909;28;19920;-58
2022/11/27 01:46:22;;;;;;;;;;;;;;;8.13;100.00;99946.84;5041360;28;19925;-59
2022/11/27 01:48:48;;;;;;;;;;;;;;;7.92;100.00;99941.88;5040728;28;19927;-58
2022/11/27 01:51:13;;;;;;;;;;;;;;;7.28;100.00;99951.56;5041289;28;19921;-59
2022/11/27 01:53:38;;;;;;;;;;;;;;;7.07;100.00;99949.91;5041795;28;20556;-58
2022/11/27 01:56:04;;;;;;;;;;;;;;;7.38;100.00;99954.94;5040051;28;19917;-57
2022/11/27 01:58:29;;;;;;;;;;;;;;;7.38;100.00;99960.06;5041582;28;19954;-58
2022/11/27 02:00:55;;;;;;;;;;;;;;;7.57;100.00;99952.28;5040939;28;19952;-58
2022/11/27 02:03:20;;;;;;;;;;;;;;;7.17;100.00;99934.53;5040098;28;19921;-59
2022/11/27 02:05:45;;;;;;;;;;;;;;;7.29;100.00;99947.28;5041363;28;19923;-58
2022/11/27 02:08:11;;;;;;;;;;;;;;;7.13;100.00;99949.88;5041455;28;20016;-58
2022/11/27 02:10:51;;;;;;;;;;;;;;;7.52;100.00;99950.59;5040279;28;19917;-58
2022/11/27 02:13:19;;;;;;;;;;;;;;;7.49;100.00;99939.53;5039837;28;20849;-59
2022/11/27 02:15:53;;;;;;;;;;;;;;;7.31;100.00;99943.84;5042105;28;19920;-59
2022/11/27 02:18:57;;;;;;;;;;;;;;;6.91;100.00;99943.09;5041241;28;19921;-59
2022/11/27 02:21:26;;;;;;;;;;;;;;;6.96;100.00;99946.53;5037177;28;19931;-58
2022/11/27 02:24:01;;;;;;;;;;;;;;;7.33;100.00;99933.63;5020267;28;19924;-59
2022/11/27 02:26:32;;;;;;;;;;;;;;;6.95;100.00;99943.97;5027743;28;19925;-59
2022/11/27 02:29:10;;;;;;;;;;;;;;;6.94;100.00;99943.13;5041028;28;19916;-59
2022/11/27 02:31:37;;;;;;;;;;;;;;;6.79;100.00;99936.31;5039774;28;19921;-59
2022/11/27 02:34:09;;;;;;;;;;;;;;;7.29;100.00;99924.22;5040204;28;19929;-59
2022/11/27 02:36:34;;;;;;;;;;;;;;;6.96;100.00;99922.63;5039807;28;19924;-59
2022/11/27 02:39:20;;;;;;;;;;;;;;;7.25;100.00;99918.28;5038128;28;19917;-59
2022/11/27 02:41:49;;;;;;;;;;;;;;;7.22;100.00;99917.44;5039416;28;19920;-58
2022/11/27 02:44:15;;;;;;;;;;;;;;;7.19;100.00;99908.03;5039212;28;19932;-59
2022/11/27 02:46:40;;;;;;;;;;;;;;;6.68;100.00;99890.28;5040075;28;19920;-59
2022/11/27 02:49:07;;;;;;;;;;;;;;;7.32;100.00;99899.47;5038489;28;19920;-59
2022/11/27 02:51:36;;;;;;;;;;;;;;;6.85;100.00;99900.47;5038184;28;20416;-59
2022/11/27 02:54:02;;;;;;;;;;;;;;;6.91;100.00;99900.44;5054753;28;20365;-59
2022/11/27 02:56:27;;;;;;;;;;;;;;;7.46;100.00;99891.69;5038800;28;20401;-59
2022/11/27 02:58:54;;;;;;;;;;;;;;;7.90;100.00;99889.72;5040987;28;19921;-59
2022/11/27 03:01:19;;;;;;;;;;;;;;;8.01;100.00;99879.41;5039316;28;19917;-59
2022/11/27 03:03:48;;;;;;;;;;;;;;;7.79;100.00;99869.28;5040197;28;19920;-59
2022/11/27 03:06:16;;;;;;;;;;;;;;;7.56;100.00;99863.47;5041833;28;19920;-59
2022/11/27 03:08:47;;;;;;;;;;;;;;;7.26;100.00;99852.50;5038590;28;19920;-59
2022/11/27 03:11:13;;;;;;;;;;;;;;;7.05;100.00;99859.44;5040212;28;19978;-59
2022/11/27 03:13:39;;;;;;;;;;;;;;;7.01;100.00;99844.94;5040383;28;19926;-58
2022/11/27 03:16:09;;;;;;;;;;;;;;;7.04;100.00;99852.59;5040425;28;19927;-59
2022/11/27 03:18:41;;;;;;;;;;;;;;;6.98;100.00;99844.94;5038462;28;20344;-59
2022/11/27 03:21:14;;;;;;;;;;;;;;;7.05;100.00;99827.84;5037951;28;19921;-59
2022/11/27 03:23:40;;;;;;;;;;;;;;;7.02;100.00;99841.50;5040946;28;19921;-58
2022/11/27 03:26:05;;;;;;;;;;;;;;;7.08;100.00;99833.78;5038362;28;20129;-60
2022/11/27 03:28:30;;;;;;;;;;;;;;;7.00;100.00;99840.69;5039269;28;19917;-59
2022/11/27 03:30:55;;;;;;;;;;;;;;;6.87;100.00;99831.34;5040120;28;19928;-59
2022/11/27 03:33:20;;;;;;;;;;;;;;;6.79;100.00;99830.50;5038250;28;19928;-59
2022/11/27 03:35:46;;;;;;;;;;;;;;;6.97;100.00;99832.13;5039660;28;19921;-59
2022/11/27 03:38:11;;;;;;;;;;;;;;;6.80;100.00;99821.97;5038558;28;19920;-58
2022/11/27 03:41:09;;;;;;;;;;;;;;;6.93;100.00;99828.72;5040079;28;19925;-59
2022/11/27 03:43:35;;;;;;;;;;;;;;;7.04;100.00;99826.13;5016743;28;19925;-59
2022/11/27 03:46:11;;;;;;;;;;;;;;;6.77;100.00;99821.97;5038553;28;19920;-58
2022/11/27 03:48:37;;;;;;;;;;;;;;;7.06;100.00;99832.94;5039322;28;19931;-59
2022/11/27 03:51:06;;;;;;;;;;;;;;;6.43;100.00;99814.38;5040199;28;19924;-57
2022/11/27 03:53:34;;;;;;;;;;;;;;;6.61;100.00;99832.25;5037554;28;19938;-59
2022/11/27 03:56:08;;;;;;;;;;;;;;;6.75;100.00;99831.34;5040205;28;20507;-58
2022/11/27 03:58:36;;;;;;;;;;;;;;;6.19;100.00;99821.25;5038089;28;19974;-59
2022/11/27 04:01:02;;;;;;;;;;;;;;;6.85;100.00;99830.47;5040171;28;19927;-59
2022/11/27 04:03:28;;;;;;;;;;;;;;;6.30;100.00;99810.16;5036381;28;19921;-59
2022/11/27 04:05:53;;;;;;;;;;;;;;;6.81;100.00;99824.50;5040943;28;20340;-59
2022/11/27 04:08:18;;;;;;;;;;;;;;;6.91;100.00;99825.31;5038639;28;20007;-59
2022/11/27 04:10:43;;;;;;;;;;;;;;;6.79;100.00;99820.25;5039400;28;19967;-58
2022/11/27 04:13:09;;;;;;;;;;;;;;;6.58;100.00;99809.22;5040116;28;19920;-59
2022/11/27 04:15:34;;;;;;;;;;;;;;;6.63;100.00;99815.19;5040101;28;20027;-59
2022/11/27 04:17:59;;;;;;;;;;;;;;;6.87;100.00;99814.25;5040958;28;19964;-59
2022/11/27 04:20:24;;;;;;;;;;;;;;;6.71;100.00;99807.50;5038311;28;20396;-58
2022/11/27 04:22:50;;;;;;;;;;;;;;;6.60;100.00;99804.97;5040181;28;19920;-59
2022/11/27 04:25:15;;;;;;;;;;;;;;;6.46;100.00;99797.31;5040963;28;20066;-59
2022/11/27 04:27:40;;;;;;;;;;;;;;;6.53;100.00;99794.75;5043374;28;20025;-59
2022/11/27 04:30:06;;;;;;;;;;;;;;;6.43;100.00;99796.47;5043991;28;20663;-59
2022/11/27 04:32:31;;;;;;;;;;;;;;;6.58;100.00;99795.59;5043571;28;19920;-59
2022/11/27 04:34:56;;;;;;;;;;;;;;;6.66;100.00;99799.84;5043438;28;20385;-59
2022/11/27 04:37:21;;;;;;;;;;;;;;;6.74;100.00;99796.38;5042803;28;20107;-58
2022/11/27 04:39:47;;;;;;;;;;;;;;;6.82;100.00;99785.28;5042110;28;19966;-59
2022/11/27 04:42:12;;;;;;;;;;;;;;;6.67;100.00;99786.16;5043489;28;19985;-58
2022/11/27 04:44:37;;;;;;;;;;;;;;;6.94;100.00;99786.91;5056442;28;19964;-59
2022/11/27 04:47:02;;;;;;;;;;;;;;;6.78;100.00;99782.72;5040353;28;19921;-59
2022/11/27 04:49:27;;;;;;;;;;;;;;;6.93;100.00;99777.53;5043468;28;19928;-59
2022/11/27 04:51:53;;;;;;;;;;;;;;;7.00;100.00;99774.09;5041517;28;19916;-58
2022/11/27 04:54:18;;;;;;;;;;;;;;;7.03;100.00;99779.19;5044053;28;19920;-59
2022/11/27 04:56:43;;;;;;;;;;;;;;;6.52;100.00;99770.00;5042216;28;20931;-59
2022/11/27 04:59:08;;;;;;;;;;;;;;;6.90;100.00;99768.16;5043285;28;19967;-59
2022/11/27 05:01:34;;;;;;;;;;;;;;;6.57;100.00;99764.03;5044253;28;19928;-58
2022/11/27 05:03:59;;;;;;;;;;;;;;;6.79;100.00;99763.94;5040361;28;19925;-59
2022/11/27 05:06:24;;;;;;;;;;;;;;;6.38;100.00;99752.97;5043094;28;20218;-59
2022/11/27 05:08:49;;;;;;;;;;;;;;;6.55;100.00;99767.47;5041242;28;19923;-58
2022/11/27 05:11:16;;;;;;;;;;;;;;;6.33;100.00;99764.09;5042868;28;20434;-59
2022/11/27 05:13:41;;;;;;;;;;;;;;;6.52;100.00;99763.16;5041274;28;19986;-59
2022/11/27 05:16:06;;;;;;;;;;;;;;;6.64;100.00;99760.59;5042983;28;19946;-59
2022/11/27 05:18:32;;;;;;;;;;;;;;;6.72;100.00;99762.25;5042749;28;20514;-58
2022/11/27 05:20:58;;;;;;;;;;;;;;;6.85;100.00;99754.53;5042422;28;20353;-58
2022/11/27 05:23:23;;;;;;;;;;;;;;;6.66;100.00;99743.53;5042083;28;20385;-58
2022/11/27 05:25:48;;;;;;;;;;;;;;;6.75;100.00;99731.53;5043263;28;19947;-59
2022/11/27 05:28:14;;;;;;;;;;;;;;;6.65;100.00;99726.44;5041648;28;19924;-58
2022/11/27 05:30:39;;;;;;;;;;;;;;;6.83;100.00;99725.50;5043186;28;19917;-58
2022/11/27 05:33:04;;;;;;;;;;;;;;;7.15;100.00;99715.94;5042490;28;19925;-58
2022/11/27 05:35:29;;;;;;;;;;;;;;;6.82;100.00;99713.59;5042670;28;20404;-58
2022/11/27 05:37:54;;;;;;;;;;;;;;;6.81;100.00;99708.47;5041552;28;20485;-58
2022/11/27 05:40:20;;;;;;;;;;;;;;;7.07;100.00;99704.03;5042957;28;20145;-58
2022/11/27 05:42:45;;;;;;;;;;;;;;;7.23;100.00;99706.47;5041117;28;19993;-59
2022/11/27 05:45:10;;;;;;;;;;;;;;;6.84;100.00;99685.41;5042228;28;19929;-58
2022/11/27 05:47:35;;;;;;;;;;;;;;;6.69;100.00;99700.00;5042188;28;19921;-58
2022/11/27 05:50:01;;;;;;;;;;;;;;;6.80;100.00;99691.41;5043167;28;19964;-58
2022/11/27 05:52:26;;;;;;;;;;;;;;;6.75;100.00;99685.44;5039886;28;19964;-58
2022/11/27 05:54:51;;;;;;;;;;;;;;;7.03;100.00;99676.75;5042627;28;20364;-58
2022/11/27 05:57:16;;;;;;;;;;;;;;;6.94;100.00;99671.69;5041244;28;19921;-58
2022/11/27 05:59:41;;;;;;;;;;;;;;;7.16;100.00;99661.28;5042807;28;19964;-58
2022/11/27 06:02:07;;;;;;;;;;;;;;;7.30;100.00;99649.25;5041887;28;19920;-58
2022/11/27 06:04:33;;;;;;;;;;;;;;;7.31;100.00;99656.03;5041073;28;19971;-59
2022/11/27 06:06:58;;;;;;;;;;;;;;;6.90;100.00;99629.88;5042465;28;19925;-58
2022/11/27 06:09:23;;;;;;;;;;;;;;;6.90;100.00;99658.03;5040218;28;19913;-58
2022/11/27 06:11:49;;;;;;;;;;;;;;;7.50;100.00;99665.28;5042847;28;20350;-58
2022/11/27 06:14:14;;;;;;;;;;;;;;;7.33;100.00;99672.25;5041421;28;19978;-59
2022/11/27 06:16:39;;;;;;;;;;;;;;;7.60;100.00;99658.34;5041191;28;19920;-58
2022/11/27 06:19:05;;;;;;;;;;;;;;;7.05;100.00;99649.41;5041515;28;19963;-58
2022/11/27 06:21:30;;;;;;;;;;;;;;;6.94;100.00;99656.31;5042443;28;20456;-59
2022/11/27 06:23:55;;;;;;;;;;;;;;;7.31;100.00;99656.88;5041366;28;20419;-58
2022/11/27 06:26:20;;;;;;;;;;;;;;;6.98;100.00;99637.53;5040642;28;20129;-58
2022/11/27 06:28:46;;;;;;;;;;;;;;;7.02;100.00;99636.63;5040008;28;19928;-58
2022/11/27 06:31:12;;;;;;;;;;;;;;;6.92;100.00;99632.44;5041767;28;20372;-58
2022/11/27 06:33:38;;;;;;;;;;;;;;;7.26;100.00;99629.63;5041435;28;19921;-57
2022/11/27 06:36:03;;;;;;;;;;;;;;;6.94;100.00;99620.47;5040763;28;19921;-58
2022/11/27 06:38:30;;;;;;;;;;;;;;;7.08;100.00;99621.22;5039469;28;19929;-59
2022/11/27 06:41:00;;;;;;;;;;;;;;;7.01;100.00;99614.44;5040978;28;19920;-58
2022/11/27 06:43:25;;;;;;;;;;;;;;;6.92;100.00;99611.97;5041047;28;19925;-57
2022/11/27 06:45:57;;;;;;;;;;;;;;;7.16;100.00;99612.63;5039883;28;20191;-58
2022/11/27 06:48:22;;;;;;;;;;;;;;;7.34;100.00;99630.38;5039369;28;19948;-58
2022/11/27 06:50:47;;;;;;;;;;;;;;;7.19;100.00;99620.28;5039748;28;20024;-58
2022/11/27 06:53:12;;;;;;;;;;;;;;;7.53;100.00;99623.41;5040085;28;19925;-58
2022/11/27 06:55:38;;;;;;;;;;;;;;;7.27;100.00;99623.63;5040273;28;19920;-58
2022/11/27 06:58:03;;;;;;;;;;;;;;;7.32;100.00;99632.13;5040229;28;19924;-58
2022/11/27 07:00:28;;;;;;;;;;;;;;;7.30;100.00;99623.63;5039962;28;20380;-58
2022/11/27 07:02:54;;;;;;;;;;;;;;;7.49;100.00;99640.50;5040860;28;20531;-57
2022/11/27 07:05:20;;;;;;;;;;;;;;;7.17;100.00;99638.22;5040098;28;19916;-58
2022/11/27 07:07:45;;;;;;;;;;;;;;;7.33;100.00;99638.94;5039532;28;19921;-58
2022/11/27 07:10:10;;;;;;;;;;;;;;;7.25;100.00;99640.72;5039424;28;20384;-57
2022/11/27 07:12:35;;;;;;;;;;;;;;;7.30;100.00;99631.31;5040552;28;19921;-57
2022/11/27 07:15:01;;;;;;;;;;;;;;;7.21;100.00;99633.94;5040558;28;20611;-58
2022/11/27 07:17:26;;;;;;;;;;;;;;;6.97;100.00;99624.72;5040420;28;19927;-58
2022/11/27 07:19:51;;;;;;;;;;;;;;;7.18;100.00;99624.53;5039434;28;19925;-57
2022/11/27 07:22:16;;;;;;;;;;;;;;;6.97;100.00;99617.88;5040234;28;19927;-58
2022/11/27 07:24:42;;;;;;;;;;;;;;;7.29;100.00;99601.41;5041800;28;20016;-57
2022/11/27 07:27:07;;;;;;;;;;;;;;;6.89;100.00;99601.75;5039930;28;20381;-58
2022/11/27 07:29:32;;;;;;;;;;;;;;;6.92;100.00;99617.06;5039191;28;19986;-57
2022/11/27 07:31:57;;;;;;;;;;;;;;;7.29;100.00;99615.06;5040129;28;20012;-58
2022/11/27 07:34:23;;;;;;;;;;;;;;;7.18;100.00;99603.22;5040099;28;19962;-57
2022/11/27 07:36:48;;;;;;;;;;;;;;;7.17;100.00;99624.59;5041476;28;19917;-57
2022/11/27 07:39:14;;;;;;;;;;;;;;;7.14;100.00;99597.28;5038661;28;20507;-57
2022/11/27 07:41:39;;;;;;;;;;;;;;;7.15;100.00;99611.78;5038576;28;19920;-57
2022/11/27 07:44:05;;;;;;;;;;;;;;;7.23;100.00;99616.81;5039961;28;20451;-58
2022/11/27 07:46:30;;;;;;;;;;;;;;;7.15;100.00;99626.31;5039611;28;20043;-58
2022/11/27 07:48:55;;;;;;;;;;;;;;;7.38;100.00;99626.94;5041525;28;19928;-58
2022/11/27 07:51:21;;;;;;;;;;;;;;;7.06;100.00;99620.38;5039337;28;19964;-58
2022/11/27 07:53:47;;;;;;;;;;;;;;;7.37;100.00;99622.69;5037361;28;19917;-57
2022/11/27 07:56:13;;;;;;;;;;;;;;;7.46;100.00;99620.06;5038913;28;19992;-57
2022/11/27 07:58:38;;;;;;;;;;;;;;;7.46;100.00;99614.09;5038598;28;19923;-57
2022/11/27 08:01:07;;;;;;;;;;;;;;;7.45;100.00;99594.44;5041281;28;19956;-58
2022/11/27 08:03:32;;;;;;;;;;;;;;;7.58;100.00;99601.13;5038271;28;20445;-57
2022/11/27 08:05:57;;;;;;;;;;;;;;;7.25;100.00;99589.47;5039823;28;19921;-57
2022/11/27 08:08:23;;;;;;;;;;;;;;;7.99;100.00;99599.00;5039636;28;19999;-57
2022/11/27 08:10:48;;;;;;;;;;;;;;;7.62;100.00;99589.13;5039839;28;19956;-57
2022/11/27 08:13:13;;;;;;;;;;;;;;;7.96;100.00;99584.50;5040929;28;19931;-57
2022/11/27 08:15:38;;;;;;;;;;;;;;;7.53;100.00;99580.69;5037491;28;19921;-58
2022/11/27 08:18:04;;;;;;;;;;;;;;;7.92;100.00;99588.78;5040120;28;19948;-58
2022/11/27 08:20:29;;;;;;;;;;;;;;;8.03;100.00;99586.09;5038773;28;20011;-57
2022/11/27 08:22:54;;;;;;;;;;;;;;;7.74;100.00;99571.06;5040439;28;19921;-58
2022/11/27 08:25:19;;;;;;;;;;;;;;;7.89;100.00;99565.75;5040379;28;19920;-58
2022/11/27 08:27:47;;;;;;;;;;;;;;;8.06;100.00;99565.53;5039006;28;19921;-58
2022/11/27 08:30:12;;;;;;;;;;;;;;;8.14;100.00;99557.72;5038877;28;19921;-57
2022/11/27 08:32:38;;;;;;;;;;;;;;;8.26;100.00;99557.59;5039432;28;19940;-58
2022/11/27 08:35:03;;;;;;;;;;;;;;;7.95;100.00;99552.84;5039944;28;20367;-58
2022/11/27 08:37:28;;;;;;;;;;;;;;;8.06;100.00;99531.34;5039521;28;19920;-57
2022/11/27 08:39:54;;;;;;;;;;;;;;;8.24;100.00;99537.94;5039195;28;19921;-58
2022/11/27 08:42:19;;;;;;;;;;;;;;;8.51;100.00;99542.72;5039939;28;20032;-57
2022/11/27 08:44:44;;;;;;;;;;;;;;;8.37;100.00;99542.03;5039312;28;19924;-57
2022/11/27 08:47:09;;;;;;;;;;;;;;;8.49;100.00;99529.06;5039941;28;20461;-57
2022/11/27 08:49:35;;;;;;;;;;;;;;;8.39;100.00;99522.31;5039047;28;20400;-58
2022/11/27 08:52:00;;;;;;;;;;;;;;;8.59;100.00;99519.47;5039237;28;20005;-58
2022/11/27 08:54:25;;;;;;;;;;;;;;;8.87;100.00;99519.91;5040717;28;19916;-57
2022/11/27 08:56:51;;;;;;;;;;;;;;;9.11;100.00;99505.78;5039909;28;19921;-58
2022/11/27 08:59:16;;;;;;;;;;;;;;;8.82;100.00;99484.88;5052840;28;19928;-59
2022/11/27 09:01:41;;;;;;;;;;;;;;;9.11;100.00;99495.50;5039265;28;19923;-58
2022/11/27 09:04:06;;;;;;;;;;;;;;;8.85;100.00;99495.97;5036127;28;19920;-58
2022/11/27 09:06:33;;;;;;;;;;;;;;;9.19;100.00;99496.22;5040403;28;19946;-58
2022/11/27 09:08:59;;;;;;;;;;;;;;;9.00;100.00;99484.56;5037631;28;19924;-58
2022/11/27 09:11:25;;;;;;;;;;;;;;;9.16;100.00;99485.97;5040567;28;19916;-57
2022/11/27 09:13:50;;;;;;;;;;;;;;;9.28;100.00;99484.88;5042885;28;19982;-57
2022/11/27 09:16:16;;;;;;;;;;;;;;;8.98;100.00;99466.59;5043079;28;19917;-60
2022/11/27 09:18:44;;;;;;;;;;;;;;;8.69;100.00;99469.69;5042202;28;19932;-58
2022/11/27 09:21:10;;;;;;;;;;;;;;;9.11;100.00;99472.38;5042749;28;19924;-58
2022/11/27 09:23:38;;;;;;;;;;;;;;;8.89;100.00;99463.34;5042367;28;20643;-58
2022/11/27 09:26:05;;;;;;;;;;;;;;;9.29;100.00;99445.47;5043806;28;20051;-58
2022/11/27 09:28:33;;;;;;;;;;;;;;;8.90;100.00;99447.09;5044730;28;19928;-58
2022/11/27 09:30:59;;;;;;;;;;;;;;;9.13;100.00;99439.78;5045317;28;19924;-57
2022/11/27 09:33:25;;;;;;;;;;;;;;;9.68;100.00;99434.41;5042868;28;19920;-58
2022/11/27 09:35:50;;;;;;;;;;;;;;;9.79;100.00;99430.72;5043635;28;20389;-58
2022/11/27 09:38:15;;;;;;;;;;;;;;;9.51;100.00;99422.78;5041578;28;20016;-58
2022/11/27 09:40:45;;;;;;;;;;;;;;;9.85;100.00;99419.44;5039343;28;19924;-58
2022/11/27 09:43:10;;;;;;;;;;;;;;;10.09;100.00;99417.22;5041940;28;19968;-58
2022/11/27 09:45:40;;;;;;;;;;;;;;;9.83;100.00;99419.50;5041399;28;20406;-58
2022/11/27 09:48:06;;;;;;;;;;;;;;;9.33;100.00;99416.28;5040794;28;19928;-58
2022/11/27 09:50:33;;;;;;;;;;;;;;;9.85;100.00;99419.44;5040845;28;19950;-58
2022/11/27 09:53:00;;;;;;;;;;;;;;;9.66;100.00;99419.00;5038696;28;19948;-57
2022/11/27 10:44:34;;;;;;;;;;;;;;;9.40;100.00;99455.56;4986201;28;19934;-59
2022/11/27 10:47:00;;;;;;;;;;;;;;;10.34;100.00;99441.50;4977112;28;19922;-58
2022/11/27 10:49:26;;;;;;;;;;;;;;;10.28;100.00;99418.44;4978260;28;19918;-58
2022/11/27 10:51:51;;;;;;;;;;;;;;;10.63;100.00;99406.47;4977432;28;20385;-58
2022/11/27 10:54:21;;;;;;;;;;;;;;;10.22;100.00;99385.16;4978145;28;20310;-58
2022/11/27 10:56:56;;;;;;;;;;;;;;;10.42;100.00;99395.84;4977792;28;20425;-58
2022/11/27 10:59:22;;;;;;;;;;;;;;;10.67;100.00;99385.75;4973780;28;20974;-58
2022/11/27 11:01:48;;;;;;;;;;;;;;;10.09;100.00;99379.44;4978144;28;19925;-58
2022/11/27 11:04:18;;;;;;;;;;;;;;;10.23;100.00;99376.53;4975665;28;19926;-58
2022/11/27 11:06:48;;;;;;;;;;;;;;;10.12;100.00;99357.94;4975905;28;19922;-58
2022/11/27 11:09:16;;;;;;;;;;;;;;;10.30;100.00;99360.09;4976395;28;19918;-58
2022/11/27 11:11:42;;;;;;;;;;;;;;;10.33;100.00;99346.28;4978449;28;19988;-58
2022/11/27 11:14:18;;;;;;;;;;;;;;;10.04;100.00;99358.97;4978006;28;20554;-58
2022/11/27 11:16:43;;;;;;;;;;;;;;;10.07;100.00;99362.34;4975471;28;20314;-58
2022/11/27 11:19:20;;;;;;;;;;;;;;;10.31;100.00;99355.78;4979561;28;20395;-59
2022/11/27 11:21:46;;;;;;;;;;;;;;;10.48;100.00;99342.50;4978120;28;19918;-58
2022/11/27 11:24:13;;;;;;;;;;;;;;;10.53;100.00;99341.47;4981991;28;20978;-58
2022/11/27 11:26:46;;;;;;;;;;;;;;;10.67;100.00;99325.66;4979775;28;19921;-58
2022/11/27 11:29:31;;;;;;;;;;;;;;;10.63;100.00;99311.19;4976650;28;19918;-59
2022/11/27 11:32:01;;;;;;;;;;;;;;;10.98;100.00;99324.81;4976343;28;19969;-58
2022/11/27 11:34:27;;;;;;;;;;;;;;;10.78;100.00;99321.03;4972880;28;19918;-58
2022/11/27 11:36:59;;;;;;;;;;;;;;;10.66;100.00;99305.94;4978433;28;20394;-58
2022/11/27 11:39:25;;;;;;;;;;;;;;;11.14;100.00;99310.59;4972789;28;19951;-58
2022/11/27 11:41:51;;;;;;;;;;;;;;;10.68;100.00;99309.31;4988335;28;19918;-59
2022/11/27 11:44:21;;;;;;;;;;;;;;;10.56;100.00;99300.22;4980808;28;19926;-58
2022/11/27 11:46:50;;;;;;;;;;;;;;;10.24;100.00;99306.16;4976102;28;20013;-58
2022/11/27 11:49:25;;;;;;;;;;;;;;;10.08;100.00;99302.28;4975141;28;20442;-59
2022/11/27 11:51:50;;;;;;;;;;;;;;;10.57;100.00;99295.91;4978230;28;19962;-63
2022/11/27 11:54:25;;;;;;;;;;;;;;;10.63;100.00;99298.31;4969263;28;19939;-59
2022/11/27 11:56:51;;;;;;;;;;;;;;;10.55;100.00;99297.66;4971118;28;19967;-58
2022/11/27 11:59:20;;;;;;;;;;;;;;;10.44;100.00;99298.78;4961749;28;20329;-58
2022/11/27 12:01:45;;;;;;;;;;;;;;;10.71;100.00;99301.50;4963762;28;20338;-58
2022/11/27 12:04:29;;;;;;;;;;;;;;;10.44;100.00;99295.38;4960079;28;19926;-58
2022/11/27 12:06:56;;;;;;;;;;;;;;;10.50;100.00;99291.81;4967593;28;19971;-59
2022/11/27 12:09:22;;;;;;;;;;;;;;;10.94;100.00;99285.38;4963762;28;19922;-58
2022/11/27 12:12:07;;;;;;;;;;;;;;;10.95;100.00;99276.78;4963365;28;19941;-59
2022/11/27 12:14:35;;;;;;;;;;;;;;;10.84;100.00;99279.66;4955122;28;19921;-58
2022/11/27 12:17:19;;;;;;;;;;;;;;;10.84;100.00;99279.66;4967840;28;20591;-58
2022/11/27 12:19:44;;;;;;;;;;;;;;;10.51;100.00;99260.00;4964319;28;20656;-59
2022/11/27 12:22:15;;;;;;;;;;;;;;;10.24;100.00;99252.09;4960936;28;19925;-58
2022/11/27 12:24:59;;;;;;;;;;;;;;;10.81;100.00;99256.56;4957930;28;19929;-58
2022/11/27 12:27:36;;;;;;;;;;;;;;;10.73;100.00;99265.41;4962909;28;19937;-60
2022/11/27 12:30:04;;;;;;;;;;;;;;;10.50;100.00;99237.72;4959637;28;19929;-59
2022/11/27 12:32:40;;;;;;;;;;;;;;;10.68;100.00;99243.19;4960507;28;19933;-58
2022/11/27 12:35:24;;;;;;;;;;;;;;;10.31;100.00;99238.22;4959796;28;19921;-58
2022/11/27 12:37:55;;;;;;;;;;;;;;;10.63;100.00;99239.91;4964340;28;20105;-58
2022/11/27 12:40:29;;;;;;;;;;;;;;;10.76;100.00;99235.22;4961948;28;19961;-58
2022/11/27 12:43:13;;;;;;;;;;;;;;;11.07;100.00;99224.03;4963111;28;19972;-58
2022/11/27 12:45:38;;;;;;;;;;;;;;;11.01;100.00;99224.22;4964870;28;19946;-58
2022/11/27 12:48:17;;;;;;;;;;;;;;;10.67;100.00;99227.78;4965846;28;20431;-59
2022/11/27 12:51:01;;;;;;;;;;;;;;;10.87;100.00;99217.72;4963388;28;19971;-59
2022/11/27 12:53:35;;;;;;;;;;;;;;;11.06;100.00;99214.59;4964449;28;20619;-59
2022/11/27 12:56:03;;;;;;;;;;;;;;;10.80;100.00;99194.78;4961831;28;20365;-59
2022/11/27 12:58:30;;;;;;;;;;;;;;;11.07;100.00;99201.66;4965897;28;19937;-58
2022/11/27 13:01:04;;;;;;;;;;;;;;;10.79;100.00;99183.63;4958647;28;19926;-60
2022/11/27 13:03:32;;;;;;;;;;;;;;;10.96;100.00;99195.16;4967243;28;19922;-59
2022/11/27 13:06:08;;;;;;;;;;;;;;;11.29;100.00;99186.38;4959474;28;19929;-59
2022/11/27 13:08:44;;;;;;;;;;;;;;;10.68;100.00;99177.97;4961207;28;19925;-58
2022/11/27 13:11:09;;;;;;;;;;;;;;;10.86;100.00;99174.84;4958685;28;19922;-59
2022/11/27 13:13:38;;;;;;;;;;;;;;;11.09;100.00;99160.41;4961855;28;20286;-58
2022/11/27 13:16:04;;;;;;;;;;;;;;;10.93;100.00;99154.03;4968838;28;19922;-58
2022/11/27 13:18:30;;;;;;;;;;;;;;;11.04;100.00;99149.41;4960513;28;19922;-58
2022/11/27 13:20:55;;;;;;;;;;;;;;;11.35;100.00;99145.81;4960460;28;19995;-58
2022/11/27 13:23:20;;;;;;;;;;;;;;;10.88;100.00;99142.13;4963721;28;20477;-58
2022/11/27 13:25:47;;;;;;;;;;;;;;;10.52;100.00;99112.34;4963480;28;19928;-58
2022/11/27 13:28:18;;;;;;;;;;;;;;;10.81;100.00;99142.34;4965338;28;20052;-58
2022/11/27 13:30:43;;;;;;;;;;;;;;;10.87;100.00;99117.25;4962964;28;19922;-58
2022/11/27 13:33:14;;;;;;;;;;;;;;;11.07;100.00;99126.09;4963582;28;19922;-58